sensor_id;sensor_type;location;lat;lon;timestamp;temperature;humidity
46482;DHT22;32193;51.446;6.792;2022-11-20T00:03:46;0.30;99.90
46482;DHT22;32193;51.446;6.792;2022-11-20T00:06:17;0.20;99.90
46482;DHT22;32193;51.446;6.792;2022-11-20T00:11:15;0.10;99.90
46482;DHT22;32193;51.446;6.792;2022-11-20T00:13:41;0.30;99.90
46482;DHT22;32193;51.446;6.792;2022-11-20T00:16:12;0.30;99.90
46482;DHT22;32193;51.446;6.792;2022-11-20T00:18:38;0.40;99.90
46482;DHT22;32193;51.446;6.792;2022-11-20T00:21:11;0.30;99.90
46482;DHT22;32193;51.446;6.792;2022-11-20T00:23:37;0.70;99.90
46482;DHT22;32193;51.446;6.792;2022-11-20T00:26:07;0.80;99.90
46482;DHT22;32193;51.446;6.792;2022-11-20T00:28:34;0.30;99.90
46482;DHT22;32193;51.446;6.792;2022-11-20T00:31:26;0.40;99.90
46482;DHT22;32193;51.446;6.792;2022-11-20T00:33:52;0.60;99.90
46482;DHT22;32193;51.446;6.792;2022-11-20T00:36:20;0.40;99.90
46482;DHT22;32193;51.446;6.792;2022-11-20T00:38:46;0.40;99.90
46482;DHT22;32193;51.446;6.792;2022-11-20T00:41:14;0.80;99.90
46482;DHT22;32193;51.446;6.792;2022-11-20T00:43:40;0.60;99.90
46482;DHT22;32193;51.446;6.792;2022-11-20T00:46:18;0.60;99.90
46482;DHT22;32193;51.446;6.792;2022-11-20T00:51:12;0.60;99.90
46482;DHT22;32193;51.446;6.792;2022-11-20T00:53:38;0.70;99.90
46482;DHT22;32193;51.446;6.792;2022-11-20T00:56:12;0.40;99.90
46482;DHT22;32193;51.446;6.792;2022-11-20T00:58:40;0.50;99.90
46482;DHT22;32193;51.446;6.792;2022-11-20T01:01:08;0.50;99.90
46482;DHT22;32193;51.446;6.792;2022-11-20T01:03:40;0.60;99.90
46482;DHT22;32193;51.446;6.792;2022-11-20T01:06:29;0.40;99.90
46482;DHT22;32193;51.446;6.792;2022-11-20T01:08:58;0.70;99.90
46482;DHT22;32193;51.446;6.792;2022-11-20T01:11:29;0.70;99.90
46482;DHT22;32193;51.446;6.792;2022-11-20T01:13:56;0.60;99.90
46482;DHT22;32193;51.446;6.792;2022-11-20T01:16:27;0.50;99.90
46482;DHT22;32193;51.446;6.792;2022-11-20T01:18:56;0.40;99.90
46482;DHT22;32193;51.446;6.792;2022-11-20T01:21:27;0.70;99.90
46482;DHT22;32193;51.446;6.792;2022-11-20T01:26:21;0.30;99.90
46482;DHT22;32193;51.446;6.792;2022-11-20T01:28:48;0.80;99.90
46482;DHT22;32193;51.446;6.792;2022-11-20T01:31:20;0.70;99.90
46482;DHT22;32193;51.446;6.792;2022-11-20T01:33:46;0.60;99.90
46482;DHT22;32193;51.446;6.792;2022-11-20T01:36:14;0.80;99.90
46482;DHT22;32193;51.446;6.792;2022-11-20T01:38:40;1.00;99.90
46482;DHT22;32193;51.446;6.792;2022-11-20T01:43:32;1.00;99.90
46482;DHT22;32193;51.446;6.792;2022-11-20T01:48:57;0.90;99.90
46482;DHT22;32193;51.446;6.792;2022-11-20T01:53:50;1.00;99.90
46482;DHT22;32193;51.446;6.792;2022-11-20T01:56:17;1.00;99.90
46482;DHT22;32193;51.446;6.792;2022-11-20T01:58:49;1.00;99.90
46482;DHT22;32193;51.446;6.792;2022-11-20T02:01:17;1.40;99.90
46482;DHT22;32193;51.446;6.792;2022-11-20T02:03:44;1.30;99.90
46482;DHT22;32193;51.446;6.792;2022-11-20T02:08:48;0.90;99.90
46482;DHT22;32193;51.446;6.792;2022-11-20T02:13:40;0.80;99.90
46482;DHT22;32193;51.446;6.792;2022-11-20T02:16:30;0.70;99.90
46482;DHT22;32193;51.446;6.792;2022-11-20T02:18:59;0.60;99.90
46482;DHT22;32193;51.446;6.792;2022-11-20T02:21:47;0.40;99.90
46482;DHT22;32193;51.446;6.792;2022-11-20T02:24:16;0.60;99.90
46482;DHT22;32193;51.446;6.792;2022-11-20T02:34:32;0.90;99.90
46482;DHT22;32193;51.446;6.792;2022-11-20T02:36:58;1.10;99.90
46482;DHT22;32193;51.446;6.792;2022-11-20T02:39:26;1.00;99.90
46482;DHT22;32193;51.446;6.792;2022-11-20T02:41:56;1.40;99.90
46482;DHT22;32193;51.446;6.792;2022-11-20T02:44:21;0.90;99.90
46482;DHT22;32193;51.446;6.792;2022-11-20T02:49:13;1.00;99.90
46482;DHT22;32193;51.446;6.792;2022-11-20T02:51:38;1.40;99.90
46482;DHT22;32193;51.446;6.792;2022-11-20T02:54:04;1.30;99.90
46482;DHT22;32193;51.446;6.792;2022-11-20T02:58:55;1.30;99.90
46482;DHT22;32193;51.446;6.792;2022-11-20T03:01:21;1.40;99.90
46482;DHT22;32193;51.446;6.792;2022-11-20T03:06:15;1.60;99.90
46482;DHT22;32193;51.446;6.792;2022-11-20T03:11:07;1.60;99.90
46482;DHT22;32193;51.446;6.792;2022-11-20T03:13:34;1.60;99.90
46482;DHT22;32193;51.446;6.792;2022-11-20T03:16:06;1.90;99.90
46482;DHT22;32193;51.446;6.792;2022-11-20T03:18:31;1.60;99.90
46482;DHT22;32193;51.446;6.792;2022-11-20T03:20:58;1.70;99.90
46482;DHT22;32193;51.446;6.792;2022-11-20T03:23:24;1.50;99.90
46482;DHT22;32193;51.446;6.792;2022-11-20T03:25:50;1.60;99.90
46482;DHT22;32193;51.446;6.792;2022-11-20T03:30:41;2.40;99.90
46482;DHT22;32193;51.446;6.792;2022-11-20T03:33:07;2.10;99.90
46482;DHT22;32193;51.446;6.792;2022-11-20T03:35:33;2.50;99.90
46482;DHT22;32193;51.446;6.792;2022-11-20T03:37:58;2.50;99.90
46482;DHT22;32193;51.446;6.792;2022-11-20T03:45:17;2.00;99.90
46482;DHT22;32193;51.446;6.792;2022-11-20T03:47:43;2.00;99.90
46482;DHT22;32193;51.446;6.792;2022-11-20T03:50:11;2.40;99.90
46482;DHT22;32193;51.446;6.792;2022-11-20T03:52:38;1.80;99.90
46482;DHT22;32193;51.446;6.792;2022-11-20T03:55:05;1.90;99.90
46482;DHT22;32193;51.446;6.792;2022-11-20T03:59:57;1.90;99.90
46482;DHT22;32193;51.446;6.792;2022-11-20T04:02:22;2.30;99.90
46482;DHT22;32193;51.446;6.792;2022-11-20T04:04:48;2.00;99.90
46482;DHT22;32193;51.446;6.792;2022-11-20T04:07:13;2.30;99.90
46482;DHT22;32193;51.446;6.792;2022-11-20T04:09:39;2.40;99.90
46482;DHT22;32193;51.446;6.792;2022-11-20T04:12:05;2.60;99.90
46482;DHT22;32193;51.446;6.792;2022-11-20T04:14:30;2.20;99.90
46482;DHT22;32193;51.446;6.792;2022-11-20T04:19:22;1.80;99.90
46482;DHT22;32193;51.446;6.792;2022-11-20T04:24:13;1.80;99.90
46482;DHT22;32193;51.446;6.792;2022-11-20T04:29:05;2.50;99.90
46482;DHT22;32193;51.446;6.792;2022-11-20T04:31:33;2.30;99.90
46482;DHT22;32193;51.446;6.792;2022-11-20T04:34:00;2.20;99.90
46482;DHT22;32193;51.446;6.792;2022-11-20T04:36:27;2.00;99.90
46482;DHT22;32193;51.446;6.792;2022-11-20T04:38:55;2.00;99.90
46482;DHT22;32193;51.446;6.792;2022-11-20T04:41:22;2.20;99.90
46482;DHT22;32193;51.446;6.792;2022-11-20T04:43:50;2.20;99.90
46482;DHT22;32193;51.446;6.792;2022-11-20T04:46:17;2.40;99.90
46482;DHT22;32193;51.446;6.792;2022-11-20T04:48:42;2.10;99.90
46482;DHT22;32193;51.446;6.792;2022-11-20T04:51:08;2.10;99.90
46482;DHT22;32193;51.446;6.792;2022-11-20T04:56:08;2.10;99.90
46482;DHT22;32193;51.446;6.792;2022-11-20T04:58:35;2.40;99.90
46482;DHT22;32193;51.446;6.792;2022-11-20T05:01:04;2.40;99.90
46482;DHT22;32193;51.446;6.792;2022-11-20T05:03:32;2.40;99.90
46482;DHT22;32193;51.446;6.792;2022-11-20T05:06:05;2.50;99.90
46482;DHT22;32193;51.446;6.792;2022-11-20T05:11:12;2.30;99.90
46482;DHT22;32193;51.446;6.792;2022-11-20T05:13:38;2.20;99.90
46482;DHT22;32193;51.446;6.792;2022-11-20T05:16:09;2.30;99.90
46482;DHT22;32193;51.446;6.792;2022-11-20T05:18:36;2.50;99.90
46482;DHT22;32193;51.446;6.792;2022-11-20T05:21:02;2.60;99.90
46482;DHT22;32193;51.446;6.792;2022-11-20T05:23:30;2.50;99.90
46482;DHT22;32193;51.446;6.792;2022-11-20T05:28:23;2.50;99.90
46482;DHT22;32193;51.446;6.792;2022-11-20T05:33:15;2.50;99.90
46482;DHT22;32193;51.446;6.792;2022-11-20T05:35:41;2.90;99.90
46482;DHT22;32193;51.446;6.792;2022-11-20T05:38:07;2.70;99.90
46482;DHT22;32193;51.446;6.792;2022-11-20T05:40:33;2.70;99.90
46482;DHT22;32193;51.446;6.792;2022-11-20T05:42:59;2.80;99.90
46482;DHT22;32193;51.446;6.792;2022-11-20T05:45:25;3.00;99.90
46482;DHT22;32193;51.446;6.792;2022-11-20T05:47:50;2.90;99.90
46482;DHT22;32193;51.446;6.792;2022-11-20T05:52:42;2.70;99.90
46482;DHT22;32193;51.446;6.792;2022-11-20T05:55:08;2.70;99.90
46482;DHT22;32193;51.446;6.792;2022-11-20T05:57:33;3.10;99.90
46482;DHT22;32193;51.446;6.792;2022-11-20T06:00:00;3.10;99.90
46482;DHT22;32193;51.446;6.792;2022-11-20T06:02:26;3.00;99.90
46482;DHT22;32193;51.446;6.792;2022-11-20T06:04:52;3.40;99.90
46482;DHT22;32193;51.446;6.792;2022-11-20T06:07:17;2.90;99.90
46482;DHT22;32193;51.446;6.792;2022-11-20T06:09:43;2.80;99.90
46482;DHT22;32193;51.446;6.792;2022-11-20T06:12:08;2.80;99.90
46482;DHT22;32193;51.446;6.792;2022-11-20T06:14:34;2.90;99.90
46482;DHT22;32193;51.446;6.792;2022-11-20T06:17:00;3.40;99.90
46482;DHT22;32193;51.446;6.792;2022-11-20T06:19:25;3.20;99.90
46482;DHT22;32193;51.446;6.792;2022-11-20T06:24:17;3.60;99.90
46482;DHT22;32193;51.446;6.792;2022-11-20T06:26:43;3.40;99.90
46482;DHT22;32193;51.446;6.792;2022-11-20T06:29:09;3.10;99.90
46482;DHT22;32193;51.446;6.792;2022-11-20T06:34:04;2.70;99.90
46482;DHT22;32193;51.446;6.792;2022-11-20T06:36:29;2.80;99.90
46482;DHT22;32193;51.446;6.792;2022-11-20T06:38:55;2.80;99.90
46482;DHT22;32193;51.446;6.792;2022-11-20T06:41:22;2.80;99.90
46482;DHT22;32193;51.446;6.792;2022-11-20T06:46:14;2.70;99.90
46482;DHT22;32193;51.446;6.792;2022-11-20T06:48:42;2.90;99.90
46482;DHT22;32193;51.446;6.792;2022-11-20T06:51:08;3.00;99.90
46482;DHT22;32193;51.446;6.792;2022-11-20T06:53:35;3.20;99.90
46482;DHT22;32193;51.446;6.792;2022-11-20T06:58:28;3.00;99.90
46482;DHT22;32193;51.446;6.792;2022-11-20T07:00:58;3.10;99.90
46482;DHT22;32193;51.446;6.792;2022-11-20T07:03:24;2.70;99.90
46482;DHT22;32193;51.446;6.792;2022-11-20T07:08:15;2.90;99.90
46482;DHT22;32193;51.446;6.792;2022-11-20T07:13:07;3.60;99.90
46482;DHT22;32193;51.446;6.792;2022-11-20T07:15:32;3.20;99.90
46482;DHT22;32193;51.446;6.792;2022-11-20T07:17:59;3.70;99.90
46482;DHT22;32193;51.446;6.792;2022-11-20T07:20:25;3.10;99.90
46482;DHT22;32193;51.446;6.792;2022-11-20T07:22:57;3.20;99.90
46482;DHT22;32193;51.446;6.792;2022-11-20T07:27:49;2.90;99.90
46482;DHT22;32193;51.446;6.792;2022-11-20T07:30:16;3.40;99.90
46482;DHT22;32193;51.446;6.792;2022-11-20T07:32:41;3.30;99.90
46482;DHT22;32193;51.446;6.792;2022-11-20T07:35:07;3.60;99.90
46482;DHT22;32193;51.446;6.792;2022-11-20T07:37:36;3.20;99.90
46482;DHT22;32193;51.446;6.792;2022-11-20T07:40:02;3.50;99.90
46482;DHT22;32193;51.446;6.792;2022-11-20T07:42:28;3.10;99.90
46482;DHT22;32193;51.446;6.792;2022-11-20T07:54:37;3.50;99.90
46482;DHT22;32193;51.446;6.792;2022-11-20T07:57:03;3.30;99.90
46482;DHT22;32193;51.446;6.792;2022-11-20T08:01:54;3.80;99.90
46482;DHT22;32193;51.446;6.792;2022-11-20T08:04:20;3.50;99.90
46482;DHT22;32193;51.446;6.792;2022-11-20T08:09:12;3.40;99.90
46482;DHT22;32193;51.446;6.792;2022-11-20T08:11:37;3.50;99.90
46482;DHT22;32193;51.446;6.792;2022-11-20T08:14:21;3.10;99.90
46482;DHT22;32193;51.446;6.792;2022-11-20T08:19:15;3.50;99.90
46482;DHT22;32193;51.446;6.792;2022-11-20T08:21:41;3.50;99.90
46482;DHT22;32193;51.446;6.792;2022-11-20T08:24:08;3.70;99.90
46482;DHT22;32193;51.446;6.792;2022-11-20T08:26:35;3.60;99.90
46482;DHT22;32193;51.446;6.792;2022-11-20T08:31:27;3.50;99.90
46482;DHT22;32193;51.446;6.792;2022-11-20T08:33:53;4.00;99.90
46482;DHT22;32193;51.446;6.792;2022-11-20T08:36:20;4.00;99.90
46482;DHT22;32193;51.446;6.792;2022-11-20T08:38:50;3.80;99.90
46482;DHT22;32193;51.446;6.792;2022-11-20T08:41:16;4.40;99.90
46482;DHT22;32193;51.446;6.792;2022-11-20T08:43:59;4.00;99.90
46482;DHT22;32193;51.446;6.792;2022-11-20T08:46:27;4.40;99.90
46482;DHT22;32193;51.446;6.792;2022-11-20T08:48:53;4.20;99.90
46482;DHT22;32193;51.446;6.792;2022-11-20T08:56:14;4.80;99.90
46482;DHT22;32193;51.446;6.792;2022-11-20T09:01:05;4.60;99.90
46482;DHT22;32193;51.446;6.792;2022-11-20T09:06:02;5.20;99.90
46482;DHT22;32193;51.446;6.792;2022-11-20T09:10:55;5.00;99.90
46482;DHT22;32193;51.446;6.792;2022-11-20T09:13:22;5.10;99.90
46482;DHT22;32193;51.446;6.792;2022-11-20T09:16:00;5.00;99.90
46482;DHT22;32193;51.446;6.792;2022-11-20T09:18:27;5.30;99.90
46482;DHT22;32193;51.446;6.792;2022-11-20T09:20:59;5.40;99.90
46482;DHT22;32193;51.446;6.792;2022-11-20T09:23:26;5.30;99.90
46482;DHT22;32193;51.446;6.792;2022-11-20T09:25:52;5.30;99.90
46482;DHT22;32193;51.446;6.792;2022-11-20T09:28:18;5.70;99.90
46482;DHT22;32193;51.446;6.792;2022-11-20T09:33:10;5.60;99.90
46482;DHT22;32193;51.446;6.792;2022-11-20T09:38:07;5.80;99.90
46482;DHT22;32193;51.446;6.792;2022-11-20T09:40:35;5.40;99.90
46482;DHT22;32193;51.446;6.792;2022-11-20T09:46:21;5.40;99.90
46482;DHT22;32193;51.446;6.792;2022-11-20T09:52:00;5.70;99.90
46482;DHT22;32193;51.446;6.792;2022-11-20T09:54:33;5.90;99.90
46482;DHT22;32193;51.446;6.792;2022-11-20T09:57:04;5.80;99.90
46482;DHT22;32193;51.446;6.792;2022-11-20T10:05:30;5.70;99.90
46482;DHT22;32193;51.446;6.792;2022-11-20T10:08:05;6.00;99.90
46482;DHT22;32193;51.446;6.792;2022-11-20T10:10:53;5.70;99.90
46482;DHT22;32193;51.446;6.792;2022-11-20T10:14:28;5.60;99.90
46482;DHT22;32193;51.446;6.792;2022-11-20T10:24:48;5.80;99.90
46482;DHT22;32193;51.446;6.792;2022-11-20T10:30:02;6.00;99.90
46482;DHT22;32193;51.446;6.792;2022-11-20T10:32:35;5.70;99.90
46482;DHT22;32193;51.446;6.792;2022-11-20T10:37:31;5.60;99.90
46482;DHT22;32193;51.446;6.792;2022-11-20T10:40:22;5.80;99.90
46482;DHT22;32193;51.446;6.792;2022-11-20T10:43:02;6.10;99.90
46482;DHT22;32193;51.446;6.792;2022-11-20T10:45:36;6.40;99.90
46482;DHT22;32193;51.446;6.792;2022-11-20T10:48:10;6.30;99.90
46482;DHT22;32193;51.446;6.792;2022-11-20T10:50:40;7.20;99.90
46482;DHT22;32193;51.446;6.792;2022-11-20T10:56:07;5.90;99.90
46482;DHT22;32193;51.446;6.792;2022-11-20T11:01:21;6.00;99.90
46482;DHT22;32193;51.446;6.792;2022-11-20T11:03:49;6.40;99.90
46482;DHT22;32193;51.446;6.792;2022-11-20T11:06:33;6.30;99.90
46482;DHT22;32193;51.446;6.792;2022-11-20T11:09:06;6.30;99.90
46482;DHT22;32193;51.446;6.792;2022-11-20T11:11:34;6.40;99.90
46482;DHT22;32193;51.446;6.792;2022-11-20T11:14:13;5.90;99.90
46482;DHT22;32193;51.446;6.792;2022-11-20T11:16:56;6.60;99.90
46482;DHT22;32193;51.446;6.792;2022-11-20T11:19:22;6.60;99.90
46482;DHT22;32193;51.446;6.792;2022-11-20T11:21:51;6.40;99.90
46482;DHT22;32193;51.446;6.792;2022-11-20T11:26:59;6.40;99.90
46482;DHT22;32193;51.446;6.792;2022-11-20T11:29:30;6.40;99.90
46482;DHT22;32193;51.446;6.792;2022-11-20T11:32:06;6.40;99.90
46482;DHT22;32193;51.446;6.792;2022-11-20T11:36:59;6.40;99.90
46482;DHT22;32193;51.446;6.792;2022-11-20T11:39:27;6.90;99.90
46482;DHT22;32193;51.446;6.792;2022-11-20T11:41:54;6.40;99.90
46482;DHT22;32193;51.446;6.792;2022-11-20T11:44:21;6.40;99.90
46482;DHT22;32193;51.446;6.792;2022-11-20T11:47:29;6.30;99.90
46482;DHT22;32193;51.446;6.792;2022-11-20T11:55:47;6.60;99.90
46482;DHT22;32193;51.446;6.792;2022-11-20T12:00:54;6.80;99.90
46482;DHT22;32193;51.446;6.792;2022-11-20T12:03:27;6.50;99.90
46482;DHT22;32193;51.446;6.792;2022-11-20T12:05:58;6.60;99.90
46482;DHT22;32193;51.446;6.792;2022-11-20T12:08:30;6.50;99.90
46482;DHT22;32193;51.446;6.792;2022-11-20T12:11:06;6.70;99.90
46482;DHT22;32193;51.446;6.792;2022-11-20T12:16:13;6.50;99.90
46482;DHT22;32193;51.446;6.792;2022-11-20T12:21:25;6.10;99.90
46482;DHT22;32193;51.446;6.792;2022-11-20T12:46:13;6.80;99.90
46482;DHT22;32193;51.446;6.792;2022-11-20T12:48:57;7.10;99.90
46482;DHT22;32193;51.446;6.792;2022-11-20T12:56:57;6.60;99.90
46482;DHT22;32193;51.446;6.792;2022-11-20T13:02:36;6.80;99.90
46482;DHT22;32193;51.446;6.792;2022-11-20T13:07:44;6.80;99.90
46482;DHT22;32193;51.446;6.792;2022-11-20T13:10:27;6.90;99.90
46482;DHT22;32193;51.446;6.792;2022-11-20T13:13:00;6.90;99.90
46482;DHT22;32193;51.446;6.792;2022-11-20T13:15:52;7.00;99.90
46482;DHT22;32193;51.446;6.792;2022-11-20T13:18:20;7.20;99.90
46482;DHT22;32193;51.446;6.792;2022-11-20T13:23:23;6.90;99.90
46482;DHT22;32193;51.446;6.792;2022-11-20T13:25:50;7.00;99.90
46482;DHT22;32193;51.446;6.792;2022-11-20T13:30:52;7.10;99.90
46482;DHT22;32193;51.446;6.792;2022-11-20T13:33:36;6.80;99.90
46482;DHT22;32193;51.446;6.792;2022-11-20T13:36:05;6.90;99.90
46482;DHT22;32193;51.446;6.792;2022-11-20T13:38:46;7.10;99.90
46482;DHT22;32193;51.446;6.792;2022-11-20T13:41:36;6.70;99.90
46482;DHT22;32193;51.446;6.792;2022-11-20T13:46:40;6.50;99.90
46482;DHT22;32193;51.446;6.792;2022-11-20T13:49:32;6.50;99.90
46482;DHT22;32193;51.446;6.792;2022-11-20T13:55:12;6.40;99.90
46482;DHT22;32193;51.446;6.792;2022-11-20T13:58:42;6.50;99.90
46482;DHT22;32193;51.446;6.792;2022-11-20T14:00:56;6.40;99.90
46482;DHT22;32193;51.446;6.792;2022-11-20T14:03:24;6.80;99.90
46482;DHT22;32193;51.446;6.792;2022-11-20T14:06:02;6.60;99.90
46482;DHT22;32193;51.446;6.792;2022-11-20T14:08:40;6.20;99.90
46482;DHT22;32193;51.446;6.792;2022-11-20T14:18:31;6.80;99.90
46482;DHT22;32193;51.446;6.792;2022-11-20T14:21:00;6.50;99.90
46482;DHT22;32193;51.446;6.792;2022-11-20T14:23:28;6.70;99.90
46482;DHT22;32193;51.446;6.792;2022-11-20T14:25:54;6.50;99.90
46482;DHT22;32193;51.446;6.792;2022-11-20T14:28:30;6.50;99.90
46482;DHT22;32193;51.446;6.792;2022-11-20T14:30:57;6.40;99.90
46482;DHT22;32193;51.446;6.792;2022-11-20T14:33:24;6.60;99.90
46482;DHT22;32193;51.446;6.792;2022-11-20T14:35:59;6.40;99.90
46482;DHT22;32193;51.446;6.792;2022-11-20T14:38:27;7.00;99.90
46482;DHT22;32193;51.446;6.792;2022-11-20T14:40:52;6.70;99.90
46482;DHT22;32193;51.446;6.792;2022-11-20T14:45:48;6.40;99.90
46482;DHT22;32193;51.446;6.792;2022-11-20T14:48:15;6.50;99.90
46482;DHT22;32193;51.446;6.792;2022-11-20T14:50:41;6.10;99.90
46482;DHT22;32193;51.446;6.792;2022-11-20T14:55:35;6.00;99.90
46482;DHT22;32193;51.446;6.792;2022-11-20T14:58:18;5.80;99.90
46482;DHT22;32193;51.446;6.792;2022-11-20T15:00:57;5.30;99.90
46482;DHT22;32193;51.446;6.792;2022-11-20T15:03:23;6.10;99.90
46482;DHT22;32193;51.446;6.792;2022-11-20T15:05:49;5.90;99.90
46482;DHT22;32193;51.446;6.792;2022-11-20T15:08:16;6.20;99.90
46482;DHT22;32193;51.446;6.792;2022-11-20T15:10:47;6.20;99.90
46482;DHT22;32193;51.446;6.792;2022-11-20T15:13:17;5.90;99.90
46482;DHT22;32193;51.446;6.792;2022-11-20T15:15:53;6.20;99.90
46482;DHT22;32193;51.446;6.792;2022-11-20T15:18:22;6.20;99.90
46482;DHT22;32193;51.446;6.792;2022-11-20T15:20:50;5.90;99.90
46482;DHT22;32193;51.446;6.792;2022-11-20T15:23:17;6.20;99.90
46482;DHT22;32193;51.446;6.792;2022-11-20T15:25:47;5.80;99.90
46482;DHT22;32193;51.446;6.792;2022-11-20T15:28:18;5.90;99.90
46482;DHT22;32193;51.446;6.792;2022-11-20T15:30:46;6.10;99.90
46482;DHT22;32193;51.446;6.792;2022-11-20T15:33:12;6.30;99.90
46482;DHT22;32193;51.446;6.792;2022-11-20T15:35:38;6.30;99.90
46482;DHT22;32193;51.446;6.792;2022-11-20T15:38:04;6.40;99.90
46482;DHT22;32193;51.446;6.792;2022-11-20T15:40:29;6.90;99.90
46482;DHT22;32193;51.446;6.792;2022-11-20T15:42:55;6.50;99.90
46482;DHT22;32193;51.446;6.792;2022-11-20T15:45:43;5.90;99.90
46482;DHT22;32193;51.446;6.792;2022-11-20T15:48:17;6.20;99.90
46482;DHT22;32193;51.446;6.792;2022-11-20T15:53:34;6.10;99.90
46482;DHT22;32193;51.446;6.792;2022-11-20T15:55:59;6.10;99.90
46482;DHT22;32193;51.446;6.792;2022-11-20T16:03:18;6.70;99.90
46482;DHT22;32193;51.446;6.792;2022-11-20T16:05:44;6.10;99.90
46482;DHT22;32193;51.446;6.792;2022-11-20T16:08:10;6.00;99.90
46482;DHT22;32193;51.446;6.792;2022-11-20T16:13:02;6.20;99.90
46482;DHT22;32193;51.446;6.792;2022-11-20T16:15:52;6.40;99.90
46482;DHT22;32193;51.446;6.792;2022-11-20T16:20:50;6.90;99.90
46482;DHT22;32193;51.446;6.792;2022-11-20T16:25:43;6.40;99.90
46482;DHT22;32193;51.446;6.792;2022-11-20T16:28:09;6.80;99.90
46482;DHT22;32193;51.446;6.792;2022-11-20T16:30:35;6.60;99.90
46482;DHT22;32193;51.446;6.792;2022-11-20T16:33:01;6.70;99.90
46482;DHT22;32193;51.446;6.792;2022-11-20T16:35:28;7.50;99.90
46482;DHT22;32193;51.446;6.792;2022-11-20T16:37:54;6.60;99.90
46482;DHT22;32193;51.446;6.792;2022-11-20T16:40:20;7.80;99.90
46482;DHT22;32193;51.446;6.792;2022-11-20T16:42:46;6.50;99.90
46482;DHT22;32193;51.446;6.792;2022-11-20T16:45:12;6.40;99.90
46482;DHT22;32193;51.446;6.792;2022-11-20T16:47:37;6.30;99.90
46482;DHT22;32193;51.446;6.792;2022-11-20T16:50:04;6.90;99.90
46482;DHT22;32193;51.446;6.792;2022-11-20T16:52:30;6.50;99.90
46482;DHT22;32193;51.446;6.792;2022-11-20T16:54:56;6.40;99.90
46482;DHT22;32193;51.446;6.792;2022-11-20T16:57:22;6.60;99.90
46482;DHT22;32193;51.446;6.792;2022-11-20T17:02:15;6.80;99.90
46482;DHT22;32193;51.446;6.792;2022-11-20T17:07:07;6.70;99.90
46482;DHT22;32193;51.446;6.792;2022-11-20T17:09:33;6.70;99.90
46482;DHT22;32193;51.446;6.792;2022-11-20T17:14:24;6.60;99.90
46482;DHT22;32193;51.446;6.792;2022-11-20T17:16:50;6.90;99.90
46482;DHT22;32193;51.446;6.792;2022-11-20T17:19:16;7.00;99.90
46482;DHT22;32193;51.446;6.792;2022-11-20T17:21:41;6.80;99.90
46482;DHT22;32193;51.446;6.792;2022-11-20T17:24:09;7.10;99.90
46482;DHT22;32193;51.446;6.792;2022-11-20T17:26:36;6.90;99.90
46482;DHT22;32193;51.446;6.792;2022-11-20T17:29:14;6.50;99.90
46482;DHT22;32193;51.446;6.792;2022-11-20T17:31:40;6.70;99.90
46482;DHT22;32193;51.446;6.792;2022-11-20T17:34:08;6.80;99.90
46482;DHT22;32193;51.446;6.792;2022-11-20T17:36:35;6.50;99.90
46482;DHT22;32193;51.446;6.792;2022-11-20T17:39:02;6.60;99.90
46482;DHT22;32193;51.446;6.792;2022-11-20T17:41:28;6.50;99.90
46482;DHT22;32193;51.446;6.792;2022-11-20T17:43:56;6.90;99.90
46482;DHT22;32193;51.446;6.792;2022-11-20T17:46:30;6.70;99.90
46482;DHT22;32193;51.446;6.792;2022-11-20T17:49:00;6.50;99.90
46482;DHT22;32193;51.446;6.792;2022-11-20T17:51:28;6.70;99.90
46482;DHT22;32193;51.446;6.792;2022-11-20T17:53:57;6.90;99.90
46482;DHT22;32193;51.446;6.792;2022-11-20T17:56:23;7.40;99.90
46482;DHT22;32193;51.446;6.792;2022-11-20T17:59:08;7.50;99.90
46482;DHT22;32193;51.446;6.792;2022-11-20T18:01:34;7.00;99.90
46482;DHT22;32193;51.446;6.792;2022-11-20T18:04:00;7.40;99.90
46482;DHT22;32193;51.446;6.792;2022-11-20T18:06:27;7.20;99.90
46482;DHT22;32193;51.446;6.792;2022-11-20T18:08:53;7.50;99.90
46482;DHT22;32193;51.446;6.792;2022-11-20T18:11:24;7.20;99.90
46482;DHT22;32193;51.446;6.792;2022-11-20T18:13:55;7.60;99.90
46482;DHT22;32193;51.446;6.792;2022-11-20T18:16:45;7.00;99.90
46482;DHT22;32193;51.446;6.792;2022-11-20T18:19:13;7.00;99.90
46482;DHT22;32193;51.446;6.792;2022-11-20T18:21:39;7.30;99.90
46482;DHT22;32193;51.446;6.792;2022-11-20T18:24:07;7.30;99.90
46482;DHT22;32193;51.446;6.792;2022-11-20T18:26:33;7.40;99.90
46482;DHT22;32193;51.446;6.792;2022-11-20T18:31:24;7.30;99.90
46482;DHT22;32193;51.446;6.792;2022-11-20T18:33:50;7.40;99.90
46482;DHT22;32193;51.446;6.792;2022-11-20T18:36:34;6.90;99.90
46482;DHT22;32193;51.446;6.792;2022-11-20T18:39:00;7.30;99.90
46482;DHT22;32193;51.446;6.792;2022-11-20T18:41:28;7.70;99.90
46482;DHT22;32193;51.446;6.792;2022-11-20T18:44:20;7.40;99.90
46482;DHT22;32193;51.446;6.792;2022-11-20T18:47:07;7.60;99.90
46482;DHT22;32193;51.446;6.792;2022-11-20T18:49:33;7.80;99.90
46482;DHT22;32193;51.446;6.792;2022-11-20T18:51:59;7.40;99.90
46482;DHT22;32193;51.446;6.792;2022-11-20T18:54:24;7.10;99.90
46482;DHT22;32193;51.446;6.792;2022-11-20T18:56:50;7.70;99.90
46482;DHT22;32193;51.446;6.792;2022-11-20T18:59:17;7.60;99.90
46482;DHT22;32193;51.446;6.792;2022-11-20T19:01:44;7.50;99.90
46482;DHT22;32193;51.446;6.792;2022-11-20T19:04:13;8.00;99.90
46482;DHT22;32193;51.446;6.792;2022-11-20T19:06:41;7.80;99.90
46482;DHT22;32193;51.446;6.792;2022-11-20T19:09:10;7.60;99.90
46482;DHT22;32193;51.446;6.792;2022-11-20T19:11:37;7.70;99.90
46482;DHT22;32193;51.446;6.792;2022-11-20T19:14:03;7.90;99.90
46482;DHT22;32193;51.446;6.792;2022-11-20T19:16:29;7.80;99.90
46482;DHT22;32193;51.446;6.792;2022-11-20T19:18:55;7.60;99.90
46482;DHT22;32193;51.446;6.792;2022-11-20T19:21:24;8.10;99.90
46482;DHT22;32193;51.446;6.792;2022-11-20T19:23:51;8.50;99.90
46482;DHT22;32193;51.446;6.792;2022-11-20T19:26:18;8.40;99.90
46482;DHT22;32193;51.446;6.792;2022-11-20T19:28:44;8.10;99.90
46482;DHT22;32193;51.446;6.792;2022-11-20T19:31:14;8.00;99.90
46482;DHT22;32193;51.446;6.792;2022-11-20T19:33:41;8.10;99.90
46482;DHT22;32193;51.446;6.792;2022-11-20T19:36:18;8.20;99.90
46482;DHT22;32193;51.446;6.792;2022-11-20T19:38:45;8.30;99.90
46482;DHT22;32193;51.446;6.792;2022-11-20T19:41:13;8.30;99.90
46482;DHT22;32193;51.446;6.792;2022-11-20T19:43:39;8.70;99.90
46482;DHT22;32193;51.446;6.792;2022-11-20T19:46:05;8.40;99.90
46482;DHT22;32193;51.446;6.792;2022-11-20T19:48:32;8.80;99.90
46482;DHT22;32193;51.446;6.792;2022-11-20T19:51:06;8.70;99.90
46482;DHT22;32193;51.446;6.792;2022-11-20T19:53:32;8.90;99.90
46482;DHT22;32193;51.446;6.792;2022-11-20T19:55:58;8.70;99.90
46482;DHT22;32193;51.446;6.792;2022-11-20T19:58:24;9.20;99.90
46482;DHT22;32193;51.446;6.792;2022-11-20T20:03:17;8.60;99.90
46482;DHT22;32193;51.446;6.792;2022-11-20T20:05:43;8.80;99.90
46482;DHT22;32193;51.446;6.792;2022-11-20T20:08:09;8.90;99.90
46482;DHT22;32193;51.446;6.792;2022-11-20T20:10:34;8.50;99.90
46482;DHT22;32193;51.446;6.792;2022-11-20T20:17:52;8.90;99.90
46482;DHT22;32193;51.446;6.792;2022-11-20T20:20:18;9.00;99.90